createdAt,value
2022-10-19T00:01:22.991Z,44.35
2022-10-19T00:04:25.616Z,44.47
2022-10-19T00:07:28.343Z,44.09
2022-10-19T00:10:31.078Z,44.33
2022-10-19T00:13:35.314Z,43.95
2022-10-19T00:16:39.162Z,44.00
2022-10-19T00:19:41.896Z,44.13
2022-10-19T00:22:44.636Z,44.30
2022-10-19T00:25:55.535Z,44.10
2022-10-19T00:28:59.662Z,44.25
2022-10-19T00:32:02.369Z,43.99
2022-10-19T00:35:05.293Z,44.49
2022-10-19T00:38:07.941Z,43.89
2022-10-19T00:41:10.607Z,43.68
2022-10-19T00:44:31.633Z,44.20
2022-10-19T00:47:35.670Z,44.05
2022-10-19T00:50:38.734Z,43.92
2022-10-19T00:53:42.191Z,43.89
2022-10-19T00:56:46.170Z,44.25
2022-10-19T00:59:48.986Z,43.69
2022-10-19T01:02:53.022Z,44.06
2022-10-19T01:05:55.784Z,44.16
2022-10-19T01:08:58.409Z,44.21
2022-10-19T01:12:06.020Z,44.23
2022-10-19T01:15:17.774Z,44.21
2022-10-19T01:18:23.194Z,44.19
2022-10-19T01:21:27.158Z,43.84
2022-10-19T01:24:41.525Z,44.19
2022-10-19T01:28:05.311Z,43.97
2022-10-19T01:31:15.054Z,44.11
2022-10-19T01:34:20.822Z,44.24
2022-10-19T01:37:28.408Z,44.42
2022-10-19T01:40:35.180Z,43.92
2022-10-19T01:43:41.290Z,43.97
2022-10-19T01:46:48.424Z,43.77
2022-10-19T01:49:54.683Z,44.13
2022-10-19T01:52:58.664Z,44.37
2022-10-19T01:56:03.083Z,44.57
2022-10-19T01:59:07.733Z,44.57
2022-10-19T02:02:13.078Z,44.05
2022-10-19T02:05:17.608Z,44.35
2022-10-19T02:08:23.403Z,44.54
2022-10-19T02:11:26.221Z,44.55
2022-10-19T02:14:30.468Z,45.70
2022-10-19T02:17:36.593Z,44.54
2022-10-19T02:20:39.593Z,45.61
2022-10-19T02:23:42.270Z,44.68
2022-10-19T02:26:45.165Z,45.30
2022-10-19T02:29:48.064Z,44.80
2022-10-19T02:32:52.484Z,45.04
2022-10-19T02:35:55.204Z,44.94
2022-10-19T02:38:57.873Z,45.46
2022-10-19T02:42:04.493Z,45.21
2022-10-19T02:45:11.046Z,45.37
2022-10-19T02:48:19.308Z,45.30
2022-10-19T02:51:28.465Z,45.39
2022-10-19T02:54:31.170Z,45.02
2022-10-19T02:57:34.102Z,45.16
2022-10-19T03:00:37.302Z,44.77
2022-10-19T03:03:41.582Z,44.57
2022-10-19T03:06:44.316Z,44.83
2022-10-19T03:09:47.070Z,44.73
2022-10-19T03:12:49.741Z,45.03
2022-10-19T03:15:52.472Z,44.56
2022-10-19T03:18:56.537Z,44.93
2022-10-19T03:21:59.580Z,44.91
2022-10-19T03:25:02.275Z,44.54
2022-10-19T03:28:05.046Z,44.45
2022-10-19T03:31:07.867Z,44.53
2022-10-19T03:34:11.939Z,44.50
2022-10-19T03:37:15.288Z,44.89
2022-10-19T03:40:18.071Z,44.92
2022-10-19T03:43:20.771Z,44.95
2022-10-19T03:46:23.922Z,44.81
2022-10-19T03:49:27.932Z,44.45
2022-10-19T03:52:30.644Z,45.52
2022-10-19T03:55:33.354Z,44.77
2022-10-19T03:58:37.079Z,44.59
2022-10-19T04:01:41.151Z,44.75
2022-10-19T04:04:45.161Z,45.05
2022-10-19T04:07:47.888Z,44.80
2022-10-19T04:10:50.578Z,44.48
2022-10-19T04:13:54.349Z,44.84
2022-10-19T04:16:57.063Z,44.69
2022-10-19T04:20:01.101Z,44.70
2022-10-19T04:23:03.822Z,44.96
2022-10-19T04:26:07.953Z,44.91
2022-10-19T04:29:11.444Z,45.09
2022-10-19T04:32:14.159Z,44.44
2022-10-19T04:35:18.244Z,44.70
2022-10-19T04:38:20.950Z,44.64
2022-10-19T04:41:23.734Z,44.88
2022-10-19T04:44:26.421Z,44.68
2022-10-19T04:47:29.993Z,44.62
2022-10-19T04:50:34.017Z,44.39
2022-10-19T04:53:37.927Z,44.91
2022-10-19T04:56:41.014Z,45.01
2022-10-19T04:59:43.668Z,44.37
2022-10-19T05:02:46.516Z,44.87
2022-10-19T05:05:50.642Z,44.76
2022-10-19T05:08:53.374Z,44.72
2022-10-19T05:11:56.016Z,44.73
2022-10-19T05:14:58.769Z,44.67
2022-10-19T05:18:01.462Z,44.60
2022-10-19T05:21:06.661Z,44.42
2022-10-19T05:24:11.907Z,44.59
2022-10-19T05:27:14.630Z,45.06
2022-10-19T05:30:17.413Z,45.01
2022-10-19T05:33:20.155Z,45.60
2022-10-19T05:36:26.316Z,45.21
2022-10-19T05:39:29.177Z,44.68
2022-10-19T05:42:31.936Z,45.09
2022-10-19T05:45:34.703Z,45.03
2022-10-19T05:48:38.206Z,45.11
2022-10-19T05:51:42.277Z,45.15
2022-10-19T05:54:44.994Z,44.95
2022-10-19T05:57:47.671Z,45.16
2022-10-19T06:00:53.945Z,45.11
2022-10-19T06:03:57.873Z,45.32
2022-10-19T06:07:01.982Z,44.85
2022-10-19T06:10:04.941Z,44.91
2022-10-19T06:13:07.692Z,45.29
2022-10-19T06:16:11.069Z,45.25
2022-10-19T06:19:13.744Z,45.21
2022-10-19T06:22:18.949Z,45.17
2022-10-19T06:25:21.678Z,45.40
2022-10-19T06:28:24.408Z,45.32
2022-10-19T06:31:27.193Z,45.39
2022-10-19T06:34:30.005Z,45.04
2022-10-19T06:37:34.402Z,46.04
2022-10-19T06:40:37.676Z,45.42
2022-10-19T06:43:42.917Z,46.21
2022-10-19T06:46:45.657Z,46.39
2022-10-19T06:49:48.432Z,46.65
2022-10-19T06:52:52.546Z,47.07
2022-10-19T06:55:57.916Z,46.64
2022-10-19T06:59:00.617Z,47.24
2022-10-19T07:02:03.308Z,46.77
2022-10-19T07:05:07.282Z,46.41
2022-10-19T07:08:11.511Z,46.88
2022-10-19T07:11:16.648Z,46.78
2022-10-19T07:14:19.543Z,46.97
2022-10-19T07:17:22.515Z,46.52
2022-10-19T07:20:25.243Z,46.92
2022-10-19T07:23:30.262Z,46.33
2022-10-19T07:26:33.796Z,46.19
2022-10-19T07:29:36.497Z,46.22
2022-10-19T07:32:41.997Z,46.42
2022-10-19T07:35:47.185Z,46.65
2022-10-19T10:26:19.316Z,46.73
2022-10-19T10:29:23.203Z,46.52
2022-10-19T10:32:26.659Z,46.63
2022-10-19T10:35:32.503Z,46.99
2022-10-19T10:38:36.529Z,46.88
2022-10-19T10:41:42.246Z,47.29
2022-10-19T10:44:47.224Z,47.38
2022-10-19T10:47:50.319Z,47.06
2022-10-19T10:50:53.152Z,46.82
2022-10-19T10:54:07.415Z,46.67
2022-10-19T10:57:16.721Z,46.55
2022-10-19T11:00:21.222Z,46.80
2022-10-19T11:03:26.206Z,46.82
2022-10-19T11:06:28.898Z,47.14
2022-10-19T11:09:35.864Z,46.98
2022-10-19T11:12:42.069Z,47.41
2022-10-19T11:15:48.291Z,47.63
2022-10-19T11:18:53.092Z,47.50
2022-10-19T11:21:58.538Z,47.62
2022-10-19T11:25:05.490Z,47.42
2022-10-19T11:28:17.569Z,47.65
2022-10-19T11:31:22.089Z,47.91
2022-10-19T11:34:45.216Z,47.41
2022-10-19T11:38:17.547Z,48.23
2022-10-19T11:41:21.223Z,48.57
2022-10-19T11:44:30.519Z,48.94
2022-10-19T11:47:37.621Z,48.48
2022-10-19T11:50:53.888Z,47.96
2022-10-19T11:54:09.939Z,48.00
2022-10-19T11:57:17.758Z,48.24
2022-10-19T12:03:55.879Z,48.57
2022-10-19T12:07:05.938Z,48.22
2022-10-19T12:10:13.825Z,47.93
2022-10-19T12:13:18.891Z,47.96
2022-10-19T12:16:30.527Z,48.22
2022-10-19T12:19:36.090Z,48.32
2022-10-19T12:22:38.868Z,47.99
2022-10-19T12:25:44.445Z,48.28
2022-10-19T12:28:48.826Z,48.07
2022-10-19T12:31:53.519Z,47.94
2022-10-19T12:35:00.371Z,48.08
2022-10-19T12:38:07.999Z,48.11
2022-10-19T12:41:15.509Z,47.81
2022-10-19T12:44:28.330Z,47.60
2022-10-19T12:47:33.047Z,48.09
2022-10-19T12:50:50.976Z,48.52
2022-10-19T12:54:08.106Z,48.32
2022-10-19T12:57:27.713Z,48.54
2022-10-19T13:00:31.579Z,48.52
2022-10-19T13:03:36.616Z,48.45
2022-10-19T13:06:42.253Z,48.76
2022-10-19T13:09:46.892Z,48.91
2022-10-19T13:12:50.308Z,48.88
2022-10-19T13:15:53.219Z,48.64
2022-10-19T13:19:18.754Z,48.79
2022-10-19T13:22:26.861Z,49.15
2022-10-19T13:25:30.510Z,48.97
2022-10-19T13:28:39.863Z,49.16
2022-10-19T13:31:42.584Z,48.74
2022-10-19T13:34:46.921Z,48.86
2022-10-19T13:38:10.903Z,48.70
2022-10-19T13:41:18.269Z,48.63
2022-10-19T13:44:28.955Z,49.11
2022-10-19T13:50:51.991Z,48.63
2022-10-19T13:53:59.227Z,48.44
2022-10-19T13:57:17.535Z,48.42
2022-10-19T14:00:20.846Z,48.60
2022-10-19T14:03:31.002Z,48.57
2022-10-19T14:06:39.772Z,48.58
2022-10-19T14:09:54.292Z,48.72
2022-10-19T14:12:57.793Z,48.42
2022-10-19T14:16:02.949Z,48.71
2022-10-19T14:19:13.538Z,48.44
2022-10-19T14:22:21.759Z,48.30
2022-10-19T14:25:27.016Z,48.42
2022-10-19T14:28:30.437Z,48.73
2022-10-19T14:31:35.441Z,48.86
2022-10-19T14:34:40.443Z,48.39
2022-10-19T14:37:44.953Z,47.89
2022-10-19T14:40:47.653Z,48.24
2022-10-19T14:43:50.339Z,48.70
2022-10-19T14:46:53.147Z,48.45
2022-10-19T14:49:55.886Z,48.60
2022-10-19T14:53:04.411Z,48.68
2022-10-19T14:56:09.272Z,48.83
2022-10-19T14:59:18.339Z,48.83
2022-10-19T15:02:24.064Z,48.78
2022-10-19T15:05:29.248Z,48.97
2022-10-19T15:08:40.089Z,48.80
2022-10-19T15:11:46.765Z,48.43
2022-10-19T15:14:49.844Z,48.72
2022-10-19T15:17:54.188Z,48.64
2022-10-19T15:21:12.152Z,48.53
2022-10-19T15:24:25.404Z,48.35
2022-10-19T15:27:32.557Z,48.60
2022-10-19T15:30:35.336Z,48.81
2022-10-19T15:33:39.457Z,48.63
2022-10-19T15:36:54.581Z,48.96
2022-10-19T15:39:59.416Z,49.17
2022-10-19T15:43:02.258Z,48.81
2022-10-19T15:46:05.473Z,48.87
2022-10-19T15:49:33.801Z,48.89
2022-10-19T15:52:36.535Z,49.42
2022-10-19T15:55:40.715Z,49.28
2022-10-19T15:58:43.489Z,48.78
2022-10-19T16:01:51.372Z,48.64
2022-10-19T16:04:58.163Z,48.90
2022-10-19T16:08:00.886Z,48.92
2022-10-19T16:11:05.303Z,48.87
2022-10-19T16:14:08.052Z,48.87
2022-10-19T16:17:11.911Z,48.72
2022-10-19T16:20:14.688Z,48.87
2022-10-19T16:23:17.335Z,49.71
2022-10-19T16:26:21.700Z,48.66
2022-10-19T16:29:28.202Z,48.79
2022-10-19T16:32:32.086Z,48.55
2022-10-19T16:35:34.878Z,48.51
2022-10-19T16:38:38.011Z,48.83
2022-10-19T16:41:42.060Z,48.58
2022-10-19T16:44:45.240Z,48.46
2022-10-19T16:47:50.474Z,48.33
2022-10-19T16:51:13.126Z,48.38
2022-10-19T16:54:17.579Z,48.14
2022-10-19T16:57:21.697Z,48.90
2022-10-19T17:00:24.444Z,48.24
2022-10-19T17:03:27.103Z,48.25
2022-10-19T17:06:30.160Z,48.20
2022-10-19T17:09:52.263Z,49.10
2022-10-19T17:12:57.033Z,49.51
2022-10-19T17:16:04.114Z,49.30
2022-10-19T17:19:15.328Z,49.10
2022-10-19T17:22:19.090Z,49.43
2022-10-19T17:25:21.907Z,49.10
2022-10-19T17:28:27.766Z,49.42
2022-10-19T17:31:31.163Z,49.51
2022-10-19T17:34:33.910Z,49.92
2022-10-19T17:37:36.940Z,49.01
2022-10-19T17:40:39.901Z,49.74
2022-10-19T17:43:45.304Z,49.47
2022-10-19T17:46:48.065Z,49.90
2022-10-19T17:49:50.852Z,49.37
2022-10-19T17:52:53.592Z,49.19
2022-10-19T17:55:56.471Z,49.43
2022-10-19T17:59:02.513Z,49.50
2022-10-19T18:02:07.534Z,49.30
2022-10-19T18:05:10.822Z,49.46
2022-10-19T18:08:13.532Z,49.14
2022-10-19T18:11:17.343Z,49.08
2022-10-19T18:14:21.581Z,48.80
2022-10-19T18:17:27.684Z,48.94
2022-10-19T18:20:30.750Z,49.34
2022-10-19T18:23:33.480Z,49.38
2022-10-19T18:26:36.579Z,49.58
2022-10-19T18:29:40.842Z,49.17
2022-10-19T18:32:43.601Z,49.09
2022-10-19T18:35:46.441Z,49.09
2022-10-19T18:38:51.339Z,48.91
2022-10-19T18:41:54.710Z,48.65
2022-10-19T18:44:59.402Z,48.47
2022-10-19T18:48:02.129Z,48.58
2022-10-19T18:51:05.910Z,48.25
2022-10-19T18:54:08.878Z,48.60
2022-10-19T18:57:11.609Z,48.54
2022-10-19T19:00:16.380Z,48.33
2022-10-19T19:03:20.617Z,48.42
2022-10-19T19:06:24.660Z,48.36
2022-10-19T19:09:27.422Z,48.35
2022-10-19T19:12:31.144Z,48.31
2022-10-19T19:15:35.265Z,48.03
2022-10-19T19:18:37.960Z,48.46
2022-10-19T19:21:43.838Z,48.56
2022-10-19T19:24:50.270Z,48.18
2022-10-19T19:27:52.989Z,48.22
2022-10-19T19:30:57.001Z,47.79
2022-10-19T19:34:00.936Z,47.52
2022-10-19T19:37:07.336Z,46.82
2022-10-19T19:40:13.245Z,47.33
2022-10-19T19:43:16.256Z,47.11
2022-10-19T19:46:20.853Z,47.79
2022-10-19T19:49:24.922Z,48.87
2022-10-19T19:52:27.621Z,47.78
2022-10-19T19:55:33.083Z,48.45
2022-10-19T19:59:02.154Z,47.49
2022-10-19T20:02:06.349Z,47.47
2022-10-19T20:05:09.632Z,48.46
2022-10-19T20:08:12.366Z,47.83
2022-10-19T20:11:16.030Z,47.43
2022-10-19T20:14:18.827Z,47.20
2022-10-19T20:17:24.974Z,47.00
2022-10-19T20:20:27.653Z,47.61
2022-10-19T20:23:30.484Z,47.11
2022-10-19T20:26:33.301Z,47.17
2022-10-19T20:29:35.983Z,47.47
2022-10-19T20:32:40.078Z,48.05
2022-10-19T20:35:42.793Z,48.00
2022-10-19T20:38:48.826Z,47.96
2022-10-19T20:41:51.531Z,47.36
2022-10-19T20:44:55.532Z,48.27
2022-10-19T20:47:59.983Z,48.34
2022-10-19T20:51:10.115Z,49.66
2022-10-19T20:54:13.518Z,48.17
2022-10-19T20:57:16.454Z,48.09
2022-10-19T21:00:19.196Z,47.96
2022-10-19T21:03:23.966Z,47.88
2022-10-19T21:06:27.869Z,47.65
2022-10-19T21:09:30.604Z,47.51
2022-10-19T21:12:33.545Z,47.59
2022-10-19T21:15:36.317Z,47.64
2022-10-19T21:18:40.655Z,47.36
2022-10-19T21:21:44.370Z,47.51
2022-10-19T21:24:47.073Z,47.54
2022-10-19T21:27:52.564Z,47.61
2022-10-19T21:30:55.278Z,47.47
2022-10-19T21:33:59.464Z,47.44
2022-10-19T21:37:02.186Z,47.55
2022-10-19T21:40:05.083Z,47.53
2022-10-19T21:43:11.032Z,46.96
2022-10-19T21:46:15.018Z,47.24
2022-10-19T21:49:19.167Z,47.32
2022-10-19T21:52:21.911Z,47.17
2022-10-19T21:55:25.045Z,47.18
2022-10-19T21:58:27.780Z,47.02
2022-10-19T22:01:37.250Z,46.91
2022-10-19T22:04:44.390Z,46.99
2022-10-19T22:07:47.078Z,47.13
2022-10-19T22:10:49.845Z,47.10
2022-10-19T22:13:54.663Z,46.79
2022-10-19T22:16:57.393Z,46.49
2022-10-19T22:20:01.445Z,46.59
2022-10-19T22:23:04.902Z,46.74
2022-10-19T22:26:14.776Z,46.49
2022-10-19T22:29:17.633Z,46.25
2022-10-19T22:32:20.677Z,45.69
2022-10-19T22:35:24.696Z,45.99
2022-10-19T22:38:28.441Z,45.99
2022-10-19T22:41:31.140Z,46.03
2022-10-19T22:44:33.856Z,46.36
2022-10-19T22:47:36.527Z,46.27
2022-10-19T22:50:40.534Z,46.30
2022-10-19T22:53:43.230Z,46.37
2022-10-19T22:56:45.877Z,46.33
2022-10-19T22:59:48.586Z,46.25
2022-10-19T23:02:51.252Z,46.46
2022-10-19T23:05:55.334Z,46.35
2022-10-19T23:08:58.123Z,46.24
2022-10-19T23:12:00.882Z,46.57
2022-10-19T23:15:03.594Z,46.47
2022-10-19T23:18:06.302Z,46.29
2022-10-19T23:21:12.214Z,46.22
2022-10-19T23:24:14.833Z,46.12
2022-10-19T23:27:17.566Z,46.25
2022-10-19T23:30:20.238Z,46.30
2022-10-19T23:33:22.977Z,46.37
2022-10-19T23:36:27.938Z,46.25
2022-10-19T23:39:30.658Z,46.39
2022-10-19T23:42:33.335Z,46.50
2022-10-19T23:45:36.006Z,46.30
2022-10-19T23:48:39.029Z,46.49
2022-10-19T23:51:43.128Z,46.51
2022-10-19T23:54:45.818Z,46.45
2022-10-19T23:57:48.613Z,46.54
